sensor_id;sensor_type;location;lat;lon;timestamp;temperature;humidity
1259;DHT22;619;51.472;6.628;2023-10-19T00:00:46;17.40;85.30
1259;DHT22;619;51.472;6.628;2023-10-19T00:03:15;17.50;85.30
1259;DHT22;619;51.472;6.628;2023-10-19T00:05:49;17.50;85.30
1259;DHT22;619;51.472;6.628;2023-10-19T00:08:17;17.50;85.20
1259;DHT22;619;51.472;6.628;2023-10-19T00:10:49;17.50;85.20
1259;DHT22;619;51.472;6.628;2023-10-19T00:13:28;17.60;85.40
1259;DHT22;619;51.472;6.628;2023-10-19T00:15:56;17.60;85.30
1259;DHT22;619;51.472;6.628;2023-10-19T00:18:27;17.60;85.30
1259;DHT22;619;51.472;6.628;2023-10-19T00:21:03;17.60;85.30
1259;DHT22;619;51.472;6.628;2023-10-19T00:23:44;17.60;85.20
1259;DHT22;619;51.472;6.628;2023-10-19T00:26:13;17.70;85.30
1259;DHT22;619;51.472;6.628;2023-10-19T00:28:59;17.70;85.20
1259;DHT22;619;51.472;6.628;2023-10-19T00:31:40;17.80;85.30
1259;DHT22;619;51.472;6.628;2023-10-19T00:34:07;17.80;85.30
1259;DHT22;619;51.472;6.628;2023-10-19T00:36:38;17.80;85.20
1259;DHT22;619;51.472;6.628;2023-10-19T00:39:09;17.80;85.10
1259;DHT22;619;51.472;6.628;2023-10-19T00:41:55;17.90;85.20
1259;DHT22;619;51.472;6.628;2023-10-19T00:44:25;17.90;85.20
1259;DHT22;619;51.472;6.628;2023-10-19T00:47:03;17.90;85.20
1259;DHT22;619;51.472;6.628;2023-10-19T00:49:32;17.90;85.10
1259;DHT22;619;51.472;6.628;2023-10-19T00:52:03;17.90;85.10
1259;DHT22;619;51.472;6.628;2023-10-19T00:54:34;17.90;85.10
1259;DHT22;619;51.472;6.628;2023-10-19T00:57:04;18.00;85.30
1259;DHT22;619;51.472;6.628;2023-10-19T00:59:38;18.00;85.30
1259;DHT22;619;51.472;6.628;2023-10-19T01:02:11;18.00;85.30
1259;DHT22;619;51.472;6.628;2023-10-19T01:04:43;18.00;85.30
1259;DHT22;619;51.472;6.628;2023-10-19T01:07:18;18.10;85.30
1259;DHT22;619;51.472;6.628;2023-10-19T01:09:47;18.10;85.20
1259;DHT22;619;51.472;6.628;2023-10-19T01:12:13;18.10;85.10
1259;DHT22;619;51.472;6.628;2023-10-19T01:15:12;18.10;85.10
1259;DHT22;619;51.472;6.628;2023-10-19T01:17:45;18.20;85.20
1259;DHT22;619;51.472;6.628;2023-10-19T01:20:14;18.20;85.10
1259;DHT22;619;51.472;6.628;2023-10-19T01:23:07;18.20;85.20
1259;DHT22;619;51.472;6.628;2023-10-19T01:28:16;18.20;85.10
1259;DHT22;619;51.472;6.628;2023-10-19T01:30:43;18.30;85.20
1259;DHT22;619;51.472;6.628;2023-10-19T01:33:17;18.30;85.20
1259;DHT22;619;51.472;6.628;2023-10-19T01:35:44;18.30;85.20
1259;DHT22;619;51.472;6.628;2023-10-19T01:38:29;18.30;85.10
1259;DHT22;619;51.472;6.628;2023-10-19T01:40:59;18.30;85.10
1259;DHT22;619;51.472;6.628;2023-10-19T01:43:27;18.30;85.20
1259;DHT22;619;51.472;6.628;2023-10-19T01:45:59;18.40;85.30
1259;DHT22;619;51.472;6.628;2023-10-19T01:48:31;18.40;85.30
1259;DHT22;619;51.472;6.628;2023-10-19T01:51:03;18.40;85.20
1259;DHT22;619;51.472;6.628;2023-10-19T01:53:35;18.50;85.30
1259;DHT22;619;51.472;6.628;2023-10-19T01:56:04;18.50;85.20
1259;DHT22;619;51.472;6.628;2023-10-19T01:58:31;18.50;85.30
1259;DHT22;619;51.472;6.628;2023-10-19T02:01:04;18.60;85.30
1259;DHT22;619;51.472;6.628;2023-10-19T02:03:55;18.60;85.20
1259;DHT22;619;51.472;6.628;2023-10-19T02:06:29;18.60;85.10
1259;DHT22;619;51.472;6.628;2023-10-19T02:09:12;18.60;85.00
1259;DHT22;619;51.472;6.628;2023-10-19T02:11:52;18.70;85.10
1259;DHT22;619;51.472;6.628;2023-10-19T02:14:25;18.80;85.10
1259;DHT22;619;51.472;6.628;2023-10-19T02:16:55;18.80;85.00
1259;DHT22;619;51.472;6.628;2023-10-19T02:19:26;18.80;85.00
1259;DHT22;619;51.472;6.628;2023-10-19T02:21:56;18.80;84.90
1259;DHT22;619;51.472;6.628;2023-10-19T02:24:22;18.80;84.80
1259;DHT22;619;51.472;6.628;2023-10-19T02:26:50;18.90;84.70
1259;DHT22;619;51.472;6.628;2023-10-19T02:29:21;18.90;84.80
1259;DHT22;619;51.472;6.628;2023-10-19T02:31:47;18.90;84.80
1259;DHT22;619;51.472;6.628;2023-10-19T02:34:15;18.90;84.80
1259;DHT22;619;51.472;6.628;2023-10-19T02:36:44;18.90;84.90
1259;DHT22;619;51.472;6.628;2023-10-19T02:39:12;18.90;84.90
1259;DHT22;619;51.472;6.628;2023-10-19T02:41:42;18.90;84.80
1259;DHT22;619;51.472;6.628;2023-10-19T02:44:11;18.90;84.90
1259;DHT22;619;51.472;6.628;2023-10-19T02:46:51;19.00;84.90
1259;DHT22;619;51.472;6.628;2023-10-19T02:49:19;19.00;84.90
1259;DHT22;619;51.472;6.628;2023-10-19T02:51:49;19.10;85.00
1259;DHT22;619;51.472;6.628;2023-10-19T02:54:22;19.10;84.90
1259;DHT22;619;51.472;6.628;2023-10-19T02:56:53;19.10;84.80
1259;DHT22;619;51.472;6.628;2023-10-19T02:59:25;19.20;84.80
1259;DHT22;619;51.472;6.628;2023-10-19T03:02:01;19.20;84.80
1259;DHT22;619;51.472;6.628;2023-10-19T03:04:32;19.20;85.00
1259;DHT22;619;51.472;6.628;2023-10-19T03:07:02;19.20;85.00
1259;DHT22;619;51.472;6.628;2023-10-19T03:09:29;19.20;85.10
1259;DHT22;619;51.472;6.628;2023-10-19T03:11:59;19.20;85.10
1259;DHT22;619;51.472;6.628;2023-10-19T03:14:26;19.30;85.20
1259;DHT22;619;51.472;6.628;2023-10-19T03:16:58;19.30;85.20
1259;DHT22;619;51.472;6.628;2023-10-19T03:19:25;19.30;85.10
1259;DHT22;619;51.472;6.628;2023-10-19T03:21:51;19.30;85.10
1259;DHT22;619;51.472;6.628;2023-10-19T03:24:18;19.40;85.10
1259;DHT22;619;51.472;6.628;2023-10-19T03:29:57;19.40;85.00
1259;DHT22;619;51.472;6.628;2023-10-19T03:32:26;19.40;85.00
1259;DHT22;619;51.472;6.628;2023-10-19T03:34:55;19.40;85.00
1259;DHT22;619;51.472;6.628;2023-10-19T03:37:28;19.40;84.90
1259;DHT22;619;51.472;6.628;2023-10-19T03:39:56;19.50;85.10
1259;DHT22;619;51.472;6.628;2023-10-19T03:42:27;19.50;85.00
1259;DHT22;619;51.472;6.628;2023-10-19T03:44:58;19.50;85.00
1259;DHT22;619;51.472;6.628;2023-10-19T03:47:30;19.60;85.00
1259;DHT22;619;51.472;6.628;2023-10-19T03:50:04;19.60;84.90
1259;DHT22;619;51.472;6.628;2023-10-19T03:52:39;19.70;85.00
1259;DHT22;619;51.472;6.628;2023-10-19T03:55:04;19.70;84.80
1259;DHT22;619;51.472;6.628;2023-10-19T03:57:37;19.70;84.70
1259;DHT22;619;51.472;6.628;2023-10-19T04:00:07;19.70;84.60
1259;DHT22;619;51.472;6.628;2023-10-19T04:02:40;19.70;84.60
1259;DHT22;619;51.472;6.628;2023-10-19T04:05:09;19.70;84.50
1259;DHT22;619;51.472;6.628;2023-10-19T04:07:39;19.70;84.50
1259;DHT22;619;51.472;6.628;2023-10-19T04:10:09;19.70;84.40
1259;DHT22;619;51.472;6.628;2023-10-19T04:12:57;19.80;84.50
1259;DHT22;619;51.472;6.628;2023-10-19T04:15:29;19.80;84.50
1259;DHT22;619;51.472;6.628;2023-10-19T04:17:54;19.80;84.60
1259;DHT22;619;51.472;6.628;2023-10-19T04:20:23;19.80;84.60
1259;DHT22;619;51.472;6.628;2023-10-19T04:22:52;19.80;84.80
1259;DHT22;619;51.472;6.628;2023-10-19T04:25:19;19.80;84.50
1259;DHT22;619;51.472;6.628;2023-10-19T04:27:48;19.80;84.40
1259;DHT22;619;51.472;6.628;2023-10-19T04:30:15;19.80;84.40
1259;DHT22;619;51.472;6.628;2023-10-19T04:32:42;19.80;84.30
1259;DHT22;619;51.472;6.628;2023-10-19T04:35:08;19.90;84.40
1259;DHT22;619;51.472;6.628;2023-10-19T04:37:37;19.80;84.20
1259;DHT22;619;51.472;6.628;2023-10-19T04:40:02;19.90;84.40
1259;DHT22;619;51.472;6.628;2023-10-19T04:42:31;19.90;84.40
1259;DHT22;619;51.472;6.628;2023-10-19T04:44:58;19.80;84.40
1259;DHT22;619;51.472;6.628;2023-10-19T04:47:24;19.80;84.40
1259;DHT22;619;51.472;6.628;2023-10-19T04:49:52;19.80;84.40
1259;DHT22;619;51.472;6.628;2023-10-19T04:52:18;19.80;85.10
1259;DHT22;619;51.472;6.628;2023-10-19T04:54:43;19.80;84.50
1259;DHT22;619;51.472;6.628;2023-10-19T04:57:11;19.80;84.50
1259;DHT22;619;51.472;6.628;2023-10-19T04:59:37;19.80;84.60
1259;DHT22;619;51.472;6.628;2023-10-19T05:02:05;19.80;84.70
1259;DHT22;619;51.472;6.628;2023-10-19T05:04:31;19.80;84.80
1259;DHT22;619;51.472;6.628;2023-10-19T05:06:57;19.80;84.70
1259;DHT22;619;51.472;6.628;2023-10-19T05:09:26;19.80;84.60
1259;DHT22;619;51.472;6.628;2023-10-19T05:11:52;19.80;84.60
1259;DHT22;619;51.472;6.628;2023-10-19T05:14:20;19.80;84.50
1259;DHT22;619;51.472;6.628;2023-10-19T05:16:48;19.80;84.50
1259;DHT22;619;51.472;6.628;2023-10-19T05:19:16;19.80;84.40
1259;DHT22;619;51.472;6.628;2023-10-19T05:21:42;19.80;84.40
1259;DHT22;619;51.472;6.628;2023-10-19T05:24:09;19.80;84.40
1259;DHT22;619;51.472;6.628;2023-10-19T05:26:34;19.80;84.50
1259;DHT22;619;51.472;6.628;2023-10-19T05:29:00;19.80;84.50
1259;DHT22;619;51.472;6.628;2023-10-19T05:31:28;19.80;84.60
1259;DHT22;619;51.472;6.628;2023-10-19T05:33:56;19.80;84.50
1259;DHT22;619;51.472;6.628;2023-10-19T05:36:24;19.80;84.50
1259;DHT22;619;51.472;6.628;2023-10-19T05:38:52;19.80;84.40
1259;DHT22;619;51.472;6.628;2023-10-19T05:41:18;19.80;84.30
1259;DHT22;619;51.472;6.628;2023-10-19T05:43:46;19.80;84.30
1259;DHT22;619;51.472;6.628;2023-10-19T05:46:14;19.80;84.30
1259;DHT22;619;51.472;6.628;2023-10-19T05:48:46;19.80;84.20
1259;DHT22;619;51.472;6.628;2023-10-19T05:51:12;19.80;84.20
1259;DHT22;619;51.472;6.628;2023-10-19T05:53:42;19.80;84.20
1259;DHT22;619;51.472;6.628;2023-10-19T05:56:11;19.80;84.20
1259;DHT22;619;51.472;6.628;2023-10-19T05:58:39;19.70;84.30
1259;DHT22;619;51.472;6.628;2023-10-19T06:01:06;19.70;84.30
1259;DHT22;619;51.472;6.628;2023-10-19T06:03:31;19.70;84.30
1259;DHT22;619;51.472;6.628;2023-10-19T06:05:57;19.70;84.40
1259;DHT22;619;51.472;6.628;2023-10-19T06:08:25;19.70;84.50
1259;DHT22;619;51.472;6.628;2023-10-19T06:10:55;19.70;84.60
1259;DHT22;619;51.472;6.628;2023-10-19T06:13:20;19.70;84.70
1259;DHT22;619;51.472;6.628;2023-10-19T06:15:48;19.70;84.70
1259;DHT22;619;51.472;6.628;2023-10-19T06:18:16;19.70;84.80
1259;DHT22;619;51.472;6.628;2023-10-19T06:20:47;19.70;84.80
1259;DHT22;619;51.472;6.628;2023-10-19T06:23:15;19.80;84.90
1259;DHT22;619;51.472;6.628;2023-10-19T06:25:42;19.80;84.90
1259;DHT22;619;51.472;6.628;2023-10-19T06:28:08;19.80;84.80
1259;DHT22;619;51.472;6.628;2023-10-19T06:30:36;19.80;84.80
1259;DHT22;619;51.472;6.628;2023-10-19T06:33:04;19.80;84.80
1259;DHT22;619;51.472;6.628;2023-10-19T06:35:33;19.80;84.70
1259;DHT22;619;51.472;6.628;2023-10-19T06:38:04;19.80;84.70
1259;DHT22;619;51.472;6.628;2023-10-19T06:40:31;19.80;84.80
1259;DHT22;619;51.472;6.628;2023-10-19T06:43:01;19.90;84.80
1259;DHT22;619;51.472;6.628;2023-10-19T06:45:31;19.90;84.80
1259;DHT22;619;51.472;6.628;2023-10-19T06:48:02;19.90;84.70
1259;DHT22;619;51.472;6.628;2023-10-19T06:50:29;19.90;84.70
1259;DHT22;619;51.472;6.628;2023-10-19T06:52:59;20.00;84.80
1259;DHT22;619;51.472;6.628;2023-10-19T06:55:27;20.10;84.90
1259;DHT22;619;51.472;6.628;2023-10-19T06:57:58;20.10;84.80
1259;DHT22;619;51.472;6.628;2023-10-19T07:00:25;20.10;84.80
1259;DHT22;619;51.472;6.628;2023-10-19T07:02:57;20.10;84.70
1259;DHT22;619;51.472;6.628;2023-10-19T07:05:25;20.20;84.70
1259;DHT22;619;51.472;6.628;2023-10-19T07:07:55;20.20;84.70
1259;DHT22;619;51.472;6.628;2023-10-19T07:10:22;20.20;84.70
1259;DHT22;619;51.472;6.628;2023-10-19T07:12:51;20.30;84.80
1259;DHT22;619;51.472;6.628;2023-10-19T07:15:20;20.30;84.80
1259;DHT22;619;51.472;6.628;2023-10-19T07:17:48;20.30;84.80
1259;DHT22;619;51.472;6.628;2023-10-19T07:20:18;20.30;84.80
1259;DHT22;619;51.472;6.628;2023-10-19T07:23:05;20.30;84.80
1259;DHT22;619;51.472;6.628;2023-10-19T07:25:52;20.40;84.90
1259;DHT22;619;51.472;6.628;2023-10-19T07:28:22;20.50;85.00
1259;DHT22;619;51.472;6.628;2023-10-19T07:30:53;20.50;85.00
1259;DHT22;619;51.472;6.628;2023-10-19T07:33:19;20.60;85.10
1259;DHT22;619;51.472;6.628;2023-10-19T07:35:46;20.70;85.20
1259;DHT22;619;51.472;6.628;2023-10-19T07:38:15;20.70;85.10
1259;DHT22;619;51.472;6.628;2023-10-19T07:40:46;20.80;85.10
1259;DHT22;619;51.472;6.628;2023-10-19T07:43:12;20.90;85.10
1259;DHT22;619;51.472;6.628;2023-10-19T07:45:39;20.90;85.00
1259;DHT22;619;51.472;6.628;2023-10-19T07:48:08;21.00;85.00
1259;DHT22;619;51.472;6.628;2023-10-19T07:50:37;21.10;85.10
1259;DHT22;619;51.472;6.628;2023-10-19T07:53:06;21.20;85.10
1259;DHT22;619;51.472;6.628;2023-10-19T07:55:34;21.20;84.80
1259;DHT22;619;51.472;6.628;2023-10-19T07:58:03;21.30;84.70
1259;DHT22;619;51.472;6.628;2023-10-19T08:00:32;21.30;84.60
1259;DHT22;619;51.472;6.628;2023-10-19T08:02:59;21.40;84.60
1259;DHT22;619;51.472;6.628;2023-10-19T08:05:28;21.50;84.50
1259;DHT22;619;51.472;6.628;2023-10-19T08:07:54;21.60;84.50
1259;DHT22;619;51.472;6.628;2023-10-19T08:10:22;21.70;84.60
1259;DHT22;619;51.472;6.628;2023-10-19T08:12:51;21.70;84.60
1259;DHT22;619;51.472;6.628;2023-10-19T08:15:18;21.80;84.60
1259;DHT22;619;51.472;6.628;2023-10-19T08:17:48;21.90;84.40
1259;DHT22;619;51.472;6.628;2023-10-19T08:20:15;22.00;84.20
1259;DHT22;619;51.472;6.628;2023-10-19T08:22:42;22.10;84.20
1259;DHT22;619;51.472;6.628;2023-10-19T08:25:12;22.20;84.00
1259;DHT22;619;51.472;6.628;2023-10-19T08:27:49;22.20;83.90
1259;DHT22;619;51.472;6.628;2023-10-19T08:30:22;22.30;83.90
1259;DHT22;619;51.472;6.628;2023-10-19T08:32:48;22.40;83.50
1259;DHT22;619;51.472;6.628;2023-10-19T08:35:18;22.40;83.40
1259;DHT22;619;51.472;6.628;2023-10-19T08:37:48;22.50;83.30
1259;DHT22;619;51.472;6.628;2023-10-19T08:40:16;22.50;83.10
1259;DHT22;619;51.472;6.628;2023-10-19T08:42:45;22.60;83.20
1259;DHT22;619;51.472;6.628;2023-10-19T08:45:12;22.70;83.10
1259;DHT22;619;51.472;6.628;2023-10-19T08:47:59;22.70;83.10
1259;DHT22;619;51.472;6.628;2023-10-19T08:50:31;22.70;83.10
1259;DHT22;619;51.472;6.628;2023-10-19T08:53:03;22.80;83.10
1259;DHT22;619;51.472;6.628;2023-10-19T08:55:29;22.90;82.80
1259;DHT22;619;51.472;6.628;2023-10-19T08:58:00;22.90;82.50
1259;DHT22;619;51.472;6.628;2023-10-19T09:00:26;22.90;82.30
1259;DHT22;619;51.472;6.628;2023-10-19T09:02:53;22.90;82.30
1259;DHT22;619;51.472;6.628;2023-10-19T09:05:22;22.80;82.30
1259;DHT22;619;51.472;6.628;2023-10-19T09:07:54;22.90;82.50
1259;DHT22;619;51.472;6.628;2023-10-19T09:10:27;22.90;82.80
1259;DHT22;619;51.472;6.628;2023-10-19T09:15:29;23.00;82.90
1259;DHT22;619;51.472;6.628;2023-10-19T09:17:58;23.10;83.00
1259;DHT22;619;51.472;6.628;2023-10-19T09:20:24;23.20;83.00
1259;DHT22;619;51.472;6.628;2023-10-19T09:22:56;23.20;83.00
1259;DHT22;619;51.472;6.628;2023-10-19T09:25:29;23.40;83.10
1259;DHT22;619;51.472;6.628;2023-10-19T09:27:57;23.50;83.20
1259;DHT22;619;51.472;6.628;2023-10-19T09:30:24;23.60;83.10
1259;DHT22;619;51.472;6.628;2023-10-19T09:32:54;23.80;83.10
1259;DHT22;619;51.472;6.628;2023-10-19T09:35:21;23.90;82.70
1259;DHT22;619;51.472;6.628;2023-10-19T09:37:50;24.10;82.80
1259;DHT22;619;51.472;6.628;2023-10-19T09:40:16;24.20;82.90
1259;DHT22;619;51.472;6.628;2023-10-19T09:42:47;24.50;83.10
1259;DHT22;619;51.472;6.628;2023-10-19T09:45:20;24.70;82.80
1259;DHT22;619;51.472;6.628;2023-10-19T09:47:50;25.00;82.40
1259;DHT22;619;51.472;6.628;2023-10-19T09:50:16;25.20;81.80
1259;DHT22;619;51.472;6.628;2023-10-19T09:52:45;25.40;80.80
1259;DHT22;619;51.472;6.628;2023-10-19T09:55:24;25.60;80.70
1259;DHT22;619;51.472;6.628;2023-10-19T09:57:59;25.80;80.20
1259;DHT22;619;51.472;6.628;2023-10-19T10:00:27;25.90;79.40
1259;DHT22;619;51.472;6.628;2023-10-19T10:02:57;26.00;78.50
1259;DHT22;619;51.472;6.628;2023-10-19T10:08:29;26.10;77.40
1259;DHT22;619;51.472;6.628;2023-10-19T10:10:55;26.10;76.80
1259;DHT22;619;51.472;6.628;2023-10-19T10:15:51;26.10;77.20
1259;DHT22;619;51.472;6.628;2023-10-19T10:18:24;26.20;77.90
1259;DHT22;619;51.472;6.628;2023-10-19T10:23:58;26.40;77.10
1259;DHT22;619;51.472;6.628;2023-10-19T10:26:29;26.40;76.60
1259;DHT22;619;51.472;6.628;2023-10-19T10:29:17;26.40;75.90
1259;DHT22;619;51.472;6.628;2023-10-19T10:31:52;26.60;75.70
1259;DHT22;619;51.472;6.628;2023-10-19T10:37:03;26.70;75.30
1259;DHT22;619;51.472;6.628;2023-10-19T10:39:34;26.70;75.40
1259;DHT22;619;51.472;6.628;2023-10-19T10:42:04;26.80;75.30
1259;DHT22;619;51.472;6.628;2023-10-19T10:47:16;26.90;75.30
1259;DHT22;619;51.472;6.628;2023-10-19T10:52:33;26.90;74.60
1259;DHT22;619;51.472;6.628;2023-10-19T10:55:09;27.00;75.30
1259;DHT22;619;51.472;6.628;2023-10-19T10:57:43;27.10;74.90
1259;DHT22;619;51.472;6.628;2023-10-19T11:00:11;27.20;74.20
1259;DHT22;619;51.472;6.628;2023-10-19T11:02:47;27.30;74.30
1259;DHT22;619;51.472;6.628;2023-10-19T11:05:16;27.40;74.10
1259;DHT22;619;51.472;6.628;2023-10-19T11:10:37;27.50;73.60
1259;DHT22;619;51.472;6.628;2023-10-19T11:13:06;27.50;73.30
1259;DHT22;619;51.472;6.628;2023-10-19T11:15:34;27.60;73.30
1259;DHT22;619;51.472;6.628;2023-10-19T11:18:00;27.60;72.40
1259;DHT22;619;51.472;6.628;2023-10-19T11:20:29;27.60;72.00
1259;DHT22;619;51.472;6.628;2023-10-19T11:22:57;27.60;72.10
1259;DHT22;619;51.472;6.628;2023-10-19T11:25:26;27.70;71.50
1259;DHT22;619;51.472;6.628;2023-10-19T11:27:57;27.60;71.30
1259;DHT22;619;51.472;6.628;2023-10-19T11:30:32;27.70;71.60
1259;DHT22;619;51.472;6.628;2023-10-19T11:33:01;27.60;70.80
1259;DHT22;619;51.472;6.628;2023-10-19T11:35:33;27.60;71.00
1259;DHT22;619;51.472;6.628;2023-10-19T11:38:00;27.60;71.50
1259;DHT22;619;51.472;6.628;2023-10-19T11:40:28;27.60;71.50
1259;DHT22;619;51.472;6.628;2023-10-19T11:42:58;27.60;71.10
1259;DHT22;619;51.472;6.628;2023-10-19T11:45:26;27.50;70.90
1259;DHT22;619;51.472;6.628;2023-10-19T11:47:56;27.40;70.60
1259;DHT22;619;51.472;6.628;2023-10-19T11:50:24;27.30;70.80
1259;DHT22;619;51.472;6.628;2023-10-19T11:52:52;27.20;71.20
1259;DHT22;619;51.472;6.628;2023-10-19T11:55:18;27.10;71.50
1259;DHT22;619;51.472;6.628;2023-10-19T11:57:46;27.10;71.30
1259;DHT22;619;51.472;6.628;2023-10-19T12:00:12;27.00;71.50
1259;DHT22;619;51.472;6.628;2023-10-19T12:02:49;26.90;71.10
1259;DHT22;619;51.472;6.628;2023-10-19T12:05:15;26.80;71.10
1259;DHT22;619;51.472;6.628;2023-10-19T12:07:41;26.80;71.00
1259;DHT22;619;51.472;6.628;2023-10-19T12:10:10;26.70;71.20
1259;DHT22;619;51.472;6.628;2023-10-19T12:12:37;26.70;71.70
1259;DHT22;619;51.472;6.628;2023-10-19T12:15:07;26.70;71.80
1259;DHT22;619;51.472;6.628;2023-10-19T12:17:33;26.60;71.90
1259;DHT22;619;51.472;6.628;2023-10-19T12:20:03;26.60;72.10
1259;DHT22;619;51.472;6.628;2023-10-19T12:22:32;26.60;71.90
1259;DHT22;619;51.472;6.628;2023-10-19T12:25:02;26.60;72.10
1259;DHT22;619;51.472;6.628;2023-10-19T12:27:30;26.60;71.80
1259;DHT22;619;51.472;6.628;2023-10-19T12:29:58;26.60;72.20
1259;DHT22;619;51.472;6.628;2023-10-19T12:32:26;26.60;71.10
1259;DHT22;619;51.472;6.628;2023-10-19T12:34:52;26.60;71.30
1259;DHT22;619;51.472;6.628;2023-10-19T12:37:25;26.60;71.50
1259;DHT22;619;51.472;6.628;2023-10-19T12:39:51;26.60;71.30
1259;DHT22;619;51.472;6.628;2023-10-19T12:42:17;26.50;71.30
1259;DHT22;619;51.472;6.628;2023-10-19T12:44:48;26.50;71.50
1259;DHT22;619;51.472;6.628;2023-10-19T12:47:13;26.50;72.10
1259;DHT22;619;51.472;6.628;2023-10-19T12:49:45;26.50;72.70
1259;DHT22;619;51.472;6.628;2023-10-19T12:52:13;26.50;72.20
1259;DHT22;619;51.472;6.628;2023-10-19T12:54:40;26.50;71.70
1259;DHT22;619;51.472;6.628;2023-10-19T12:57:11;26.50;71.60
1259;DHT22;619;51.472;6.628;2023-10-19T12:59:40;26.50;71.70
1259;DHT22;619;51.472;6.628;2023-10-19T13:02:09;26.50;71.60
1259;DHT22;619;51.472;6.628;2023-10-19T13:04:35;26.40;71.90
1259;DHT22;619;51.472;6.628;2023-10-19T13:07:01;26.30;71.70
1259;DHT22;619;51.472;6.628;2023-10-19T13:09:29;26.30;71.50
1259;DHT22;619;51.472;6.628;2023-10-19T13:12:00;26.20;71.90
1259;DHT22;619;51.472;6.628;2023-10-19T13:14:28;26.10;71.90
1259;DHT22;619;51.472;6.628;2023-10-19T13:16:56;26.00;72.40
1259;DHT22;619;51.472;6.628;2023-10-19T13:19:21;25.90;72.70
1259;DHT22;619;51.472;6.628;2023-10-19T13:21:50;25.80;73.00
1259;DHT22;619;51.472;6.628;2023-10-19T13:24:17;25.80;73.20
1259;DHT22;619;51.472;6.628;2023-10-19T13:26:46;25.70;73.30
1259;DHT22;619;51.472;6.628;2023-10-19T13:29:14;25.70;73.80
1259;DHT22;619;51.472;6.628;2023-10-19T13:31:40;25.60;74.30
1259;DHT22;619;51.472;6.628;2023-10-19T13:34:06;25.60;74.90
1259;DHT22;619;51.472;6.628;2023-10-19T13:36:37;25.50;75.40
1259;DHT22;619;51.472;6.628;2023-10-19T13:39:04;25.50;76.00
1259;DHT22;619;51.472;6.628;2023-10-19T13:41:30;25.40;76.30
1259;DHT22;619;51.472;6.628;2023-10-19T13:43:55;25.40;76.80
1259;DHT22;619;51.472;6.628;2023-10-19T13:46:21;25.40;77.10
1259;DHT22;619;51.472;6.628;2023-10-19T13:48:49;25.30;77.20
1259;DHT22;619;51.472;6.628;2023-10-19T13:51:19;25.30;77.50
1259;DHT22;619;51.472;6.628;2023-10-19T13:53:50;25.20;77.90
1259;DHT22;619;51.472;6.628;2023-10-19T13:56:16;25.20;78.20
1259;DHT22;619;51.472;6.628;2023-10-19T13:58:41;25.20;78.50
1259;DHT22;619;51.472;6.628;2023-10-19T14:01:08;25.20;79.00
1259;DHT22;619;51.472;6.628;2023-10-19T14:03:36;25.10;79.00
1259;DHT22;619;51.472;6.628;2023-10-19T14:06:03;25.10;79.10
1259;DHT22;619;51.472;6.628;2023-10-19T14:08:28;25.10;79.20
1259;DHT22;619;51.472;6.628;2023-10-19T14:11:01;25.10;79.40
1259;DHT22;619;51.472;6.628;2023-10-19T14:13:27;25.10;79.30
1259;DHT22;619;51.472;6.628;2023-10-19T14:15:55;25.00;79.20
1259;DHT22;619;51.472;6.628;2023-10-19T14:18:21;25.00;79.00
1259;DHT22;619;51.472;6.628;2023-10-19T14:20:47;24.90;79.20
1259;DHT22;619;51.472;6.628;2023-10-19T14:23:12;24.90;79.40
1259;DHT22;619;51.472;6.628;2023-10-19T14:25:38;24.90;79.60
1259;DHT22;619;51.472;6.628;2023-10-19T14:28:11;24.80;79.80
1259;DHT22;619;51.472;6.628;2023-10-19T14:30:37;24.90;79.80
1259;DHT22;619;51.472;6.628;2023-10-19T14:33:03;24.80;79.80
1259;DHT22;619;51.472;6.628;2023-10-19T14:35:29;24.80;79.90
1259;DHT22;619;51.472;6.628;2023-10-19T14:37:57;24.70;79.50
1259;DHT22;619;51.472;6.628;2023-10-19T14:40:27;24.70;79.80
1259;DHT22;619;51.472;6.628;2023-10-19T14:42:54;24.60;79.90
1259;DHT22;619;51.472;6.628;2023-10-19T14:45:21;24.60;79.90
1259;DHT22;619;51.472;6.628;2023-10-19T14:47:52;24.60;80.00
1259;DHT22;619;51.472;6.628;2023-10-19T14:50:20;24.50;80.20
1259;DHT22;619;51.472;6.628;2023-10-19T14:52:49;24.50;80.90
1259;DHT22;619;51.472;6.628;2023-10-19T14:55:15;24.40;80.10
1259;DHT22;619;51.472;6.628;2023-10-19T14:57:45;24.40;80.50
1259;DHT22;619;51.472;6.628;2023-10-19T15:00:15;24.30;80.50
1259;DHT22;619;51.472;6.628;2023-10-19T15:02:47;24.30;80.90
1259;DHT22;619;51.472;6.628;2023-10-19T15:05:15;24.30;81.00
1259;DHT22;619;51.472;6.628;2023-10-19T15:07:42;24.30;81.00
1259;DHT22;619;51.472;6.628;2023-10-19T15:10:12;24.20;81.10
1259;DHT22;619;51.472;6.628;2023-10-19T15:12:39;24.20;81.20
1259;DHT22;619;51.472;6.628;2023-10-19T15:15:06;24.20;81.20
1259;DHT22;619;51.472;6.628;2023-10-19T15:17:33;24.20;81.50
1259;DHT22;619;51.472;6.628;2023-10-19T15:20:01;24.10;81.50
1259;DHT22;619;51.472;6.628;2023-10-19T15:22:29;24.20;81.80
1259;DHT22;619;51.472;6.628;2023-10-19T15:24:58;24.10;81.80
1259;DHT22;619;51.472;6.628;2023-10-19T15:27:23;24.20;82.00
1259;DHT22;619;51.472;6.628;2023-10-19T15:29:49;24.20;82.00
1259;DHT22;619;51.472;6.628;2023-10-19T15:32:15;24.20;81.80
1259;DHT22;619;51.472;6.628;2023-10-19T15:34:41;24.20;81.80
1259;DHT22;619;51.472;6.628;2023-10-19T15:37:07;24.20;81.80
1259;DHT22;619;51.472;6.628;2023-10-19T15:39:35;24.20;81.80
1259;DHT22;619;51.472;6.628;2023-10-19T15:42:02;24.20;81.90
1259;DHT22;619;51.472;6.628;2023-10-19T15:44:29;24.20;82.00
1259;DHT22;619;51.472;6.628;2023-10-19T15:46:57;24.20;81.90
1259;DHT22;619;51.472;6.628;2023-10-19T15:49:22;24.20;81.80
1259;DHT22;619;51.472;6.628;2023-10-19T15:51:53;24.30;81.80
1259;DHT22;619;51.472;6.628;2023-10-19T15:54:19;24.30;81.70
1259;DHT22;619;51.472;6.628;2023-10-19T15:56:47;24.40;81.80
1259;DHT22;619;51.472;6.628;2023-10-19T15:59:13;24.40;81.60
1259;DHT22;619;51.472;6.628;2023-10-19T16:01:43;24.40;81.30
1259;DHT22;619;51.472;6.628;2023-10-19T16:04:09;24.40;81.10
1259;DHT22;619;51.472;6.628;2023-10-19T16:06:34;24.30;81.00
1259;DHT22;619;51.472;6.628;2023-10-19T16:09:00;24.30;81.00
1259;DHT22;619;51.472;6.628;2023-10-19T16:11:26;24.20;80.90
1259;DHT22;619;51.472;6.628;2023-10-19T16:13:53;24.20;81.10
1259;DHT22;619;51.472;6.628;2023-10-19T16:16:19;24.10;81.00
1259;DHT22;619;51.472;6.628;2023-10-19T16:18:47;24.10;81.00
1259;DHT22;619;51.472;6.628;2023-10-19T16:21:15;24.10;81.10
1259;DHT22;619;51.472;6.628;2023-10-19T16:23:41;24.00;81.10
1259;DHT22;619;51.472;6.628;2023-10-19T16:26:07;23.90;81.10
1259;DHT22;619;51.472;6.628;2023-10-19T16:28:34;23.80;81.20
1259;DHT22;619;51.472;6.628;2023-10-19T16:31:03;23.80;81.40
1259;DHT22;619;51.472;6.628;2023-10-19T16:33:29;23.70;81.40
1259;DHT22;619;51.472;6.628;2023-10-19T16:35:55;23.60;81.50
1259;DHT22;619;51.472;6.628;2023-10-19T16:38:23;23.60;81.80
1259;DHT22;619;51.472;6.628;2023-10-19T16:40:58;23.50;82.00
1259;DHT22;619;51.472;6.628;2023-10-19T16:43:24;23.40;82.10
1259;DHT22;619;51.472;6.628;2023-10-19T16:45:53;23.40;82.30
1259;DHT22;619;51.472;6.628;2023-10-19T16:48:21;23.30;82.30
1259;DHT22;619;51.472;6.628;2023-10-19T16:50:48;23.20;82.30
1259;DHT22;619;51.472;6.628;2023-10-19T16:53:16;23.20;82.40
1259;DHT22;619;51.472;6.628;2023-10-19T16:55:42;23.10;82.30
1259;DHT22;619;51.472;6.628;2023-10-19T16:58:07;23.00;82.40